sensor_id;sensor_type;location;lat;lon;timestamp;temperature;humidity
21734;DHT22;11029;47.820;10.534;2023-04-15T00:01:04;2.90;78.10
21734;DHT22;11029;47.820;10.534;2023-04-15T00:03:31;2.80;79.20
21734;DHT22;11029;47.820;10.534;2023-04-15T00:06:00;2.80;78.60
21734;DHT22;11029;47.820;10.534;2023-04-15T00:08:27;2.80;78.20
21734;DHT22;11029;47.820;10.534;2023-04-15T00:10:55;2.90;77.90
21734;DHT22;11029;47.820;10.534;2023-04-15T00:13:22;2.90;77.90
21734;DHT22;11029;47.820;10.534;2023-04-15T00:15:49;3.00;77.70
21734;DHT22;11029;47.820;10.534;2023-04-15T00:18:15;3.00;77.60
21734;DHT22;11029;47.820;10.534;2023-04-15T00:20:42;3.00;77.10
21734;DHT22;11029;47.820;10.534;2023-04-15T00:23:09;2.90;77.10
21734;DHT22;11029;47.820;10.534;2023-04-15T00:25:35;2.90;76.90
21734;DHT22;11029;47.820;10.534;2023-04-15T00:28:02;2.90;77.20
21734;DHT22;11029;47.820;10.534;2023-04-15T00:30:29;2.90;77.20
21734;DHT22;11029;47.820;10.534;2023-04-15T00:32:56;3.00;75.80
21734;DHT22;11029;47.820;10.534;2023-04-15T00:35:23;2.90;75.40
21734;DHT22;11029;47.820;10.534;2023-04-15T00:37:50;2.90;75.90
21734;DHT22;11029;47.820;10.534;2023-04-15T00:40:18;2.90;75.10
21734;DHT22;11029;47.820;10.534;2023-04-15T00:42:46;2.80;74.90
21734;DHT22;11029;47.820;10.534;2023-04-15T00:45:13;2.70;75.20
21734;DHT22;11029;47.820;10.534;2023-04-15T00:47:43;2.60;75.70
21734;DHT22;11029;47.820;10.534;2023-04-15T00:50:11;2.50;76.40
21734;DHT22;11029;47.820;10.534;2023-04-15T00:52:39;2.40;76.80
21734;DHT22;11029;47.820;10.534;2023-04-15T00:55:07;2.40;77.60
21734;DHT22;11029;47.820;10.534;2023-04-15T00:57:34;2.40;77.30
21734;DHT22;11029;47.820;10.534;2023-04-15T01:00:02;2.30;77.90
21734;DHT22;11029;47.820;10.534;2023-04-15T01:02:31;2.20;79.00
21734;DHT22;11029;47.820;10.534;2023-04-15T01:05:01;2.30;79.00
21734;DHT22;11029;47.820;10.534;2023-04-15T01:07:28;2.40;79.00
21734;DHT22;11029;47.820;10.534;2023-04-15T01:09:54;2.50;78.00
21734;DHT22;11029;47.820;10.534;2023-04-15T01:12:23;2.30;78.20
21734;DHT22;11029;47.820;10.534;2023-04-15T01:14:53;2.00;79.30
21734;DHT22;11029;47.820;10.534;2023-04-15T01:17:20;1.90;80.30
21734;DHT22;11029;47.820;10.534;2023-04-15T01:19:47;2.00;80.30
21734;DHT22;11029;47.820;10.534;2023-04-15T01:22:14;2.00;79.80
21734;DHT22;11029;47.820;10.534;2023-04-15T01:24:46;2.00;79.10
21734;DHT22;11029;47.820;10.534;2023-04-15T01:27:18;2.00;79.40
21734;DHT22;11029;47.820;10.534;2023-04-15T01:29:46;2.10;80.00
21734;DHT22;11029;47.820;10.534;2023-04-15T01:32:13;2.10;78.90
21734;DHT22;11029;47.820;10.534;2023-04-15T01:34:41;2.10;78.30
21734;DHT22;11029;47.820;10.534;2023-04-15T01:37:07;2.10;77.90
21734;DHT22;11029;47.820;10.534;2023-04-15T01:39:34;2.10;77.90
21734;DHT22;11029;47.820;10.534;2023-04-15T01:42:01;2.10;77.80
21734;DHT22;11029;47.820;10.534;2023-04-15T01:44:28;2.10;77.10
21734;DHT22;11029;47.820;10.534;2023-04-15T01:46:55;2.10;76.80
21734;DHT22;11029;47.820;10.534;2023-04-15T01:49:22;2.00;77.20
21734;DHT22;11029;47.820;10.534;2023-04-15T01:51:49;2.10;77.30
21734;DHT22;11029;47.820;10.534;2023-04-15T01:54:16;2.10;77.10
21734;DHT22;11029;47.820;10.534;2023-04-15T01:56:43;2.00;76.60
21734;DHT22;11029;47.820;10.534;2023-04-15T01:59:10;1.90;77.50
21734;DHT22;11029;47.820;10.534;2023-04-15T02:01:37;1.90;76.70
21734;DHT22;11029;47.820;10.534;2023-04-15T02:04:04;1.80;77.20
21734;DHT22;11029;47.820;10.534;2023-04-15T02:06:31;1.90;77.10
21734;DHT22;11029;47.820;10.534;2023-04-15T02:08:58;1.90;76.40
21734;DHT22;11029;47.820;10.534;2023-04-15T02:11:26;1.80;76.70
21734;DHT22;11029;47.820;10.534;2023-04-15T02:13:52;1.70;76.80
21734;DHT22;11029;47.820;10.534;2023-04-15T02:16:19;1.70;76.50
21734;DHT22;11029;47.820;10.534;2023-04-15T02:18:46;1.70;76.70
21734;DHT22;11029;47.820;10.534;2023-04-15T02:21:13;1.60;76.10
21734;DHT22;11029;47.820;10.534;2023-04-15T02:23:40;1.70;76.20
21734;DHT22;11029;47.820;10.534;2023-04-15T02:26:07;1.60;75.90
21734;DHT22;11029;47.820;10.534;2023-04-15T02:28:34;1.40;77.20
21734;DHT22;11029;47.820;10.534;2023-04-15T02:31:05;1.40;78.10
21734;DHT22;11029;47.820;10.534;2023-04-15T02:33:32;1.40;77.70
21734;DHT22;11029;47.820;10.534;2023-04-15T02:35:59;1.30;77.50
21734;DHT22;11029;47.820;10.534;2023-04-15T02:38:27;1.20;78.20
21734;DHT22;11029;47.820;10.534;2023-04-15T02:40:54;1.20;78.40
21734;DHT22;11029;47.820;10.534;2023-04-15T02:43:21;1.30;78.50
21734;DHT22;11029;47.820;10.534;2023-04-15T02:45:49;1.40;78.20
21734;DHT22;11029;47.820;10.534;2023-04-15T02:48:16;1.50;77.90
21734;DHT22;11029;47.820;10.534;2023-04-15T02:50:45;1.60;77.50
21734;DHT22;11029;47.820;10.534;2023-04-15T02:53:14;1.70;76.80
21734;DHT22;11029;47.820;10.534;2023-04-15T02:55:41;1.70;76.50
21734;DHT22;11029;47.820;10.534;2023-04-15T02:58:08;1.70;76.60
21734;DHT22;11029;47.820;10.534;2023-04-15T03:00:35;1.60;77.00
21734;DHT22;11029;47.820;10.534;2023-04-15T03:03:04;1.70;76.70
21734;DHT22;11029;47.820;10.534;2023-04-15T03:05:31;1.70;76.70
21734;DHT22;11029;47.820;10.534;2023-04-15T03:08:00;1.70;77.20
21734;DHT22;11029;47.820;10.534;2023-04-15T03:10:27;1.80;77.50
21734;DHT22;11029;47.820;10.534;2023-04-15T03:12:53;1.80;77.40
21734;DHT22;11029;47.820;10.534;2023-04-15T03:15:22;1.90;77.20
21734;DHT22;11029;47.820;10.534;2023-04-15T03:17:51;1.90;77.20
21734;DHT22;11029;47.820;10.534;2023-04-15T03:20:18;2.00;76.50
21734;DHT22;11029;47.820;10.534;2023-04-15T03:22:46;1.90;75.60
21734;DHT22;11029;47.820;10.534;2023-04-15T03:25:13;1.90;76.30
21734;DHT22;11029;47.820;10.534;2023-04-15T03:27:40;1.90;75.90
21734;DHT22;11029;47.820;10.534;2023-04-15T03:30:08;1.90;76.00
21734;DHT22;11029;47.820;10.534;2023-04-15T03:32:37;1.90;76.40
21734;DHT22;11029;47.820;10.534;2023-04-15T03:35:05;2.00;76.20
21734;DHT22;11029;47.820;10.534;2023-04-15T03:37:32;2.00;75.60
21734;DHT22;11029;47.820;10.534;2023-04-15T03:39:58;1.90;75.80
21734;DHT22;11029;47.820;10.534;2023-04-15T03:42:26;1.90;75.60
21734;DHT22;11029;47.820;10.534;2023-04-15T03:44:52;1.80;76.10
21734;DHT22;11029;47.820;10.534;2023-04-15T03:47:19;1.80;75.90
21734;DHT22;11029;47.820;10.534;2023-04-15T03:49:46;1.80;76.20
21734;DHT22;11029;47.820;10.534;2023-04-15T03:52:13;1.70;75.90
21734;DHT22;11029;47.820;10.534;2023-04-15T03:54:39;1.70;76.20
21734;DHT22;11029;47.820;10.534;2023-04-15T03:57:06;1.80;76.10
21734;DHT22;11029;47.820;10.534;2023-04-15T03:59:33;1.80;75.50
21734;DHT22;11029;47.820;10.534;2023-04-15T04:02:00;1.60;75.90
21734;DHT22;11029;47.820;10.534;2023-04-15T04:04:27;1.60;75.90
21734;DHT22;11029;47.820;10.534;2023-04-15T04:06:54;1.60;75.30
21734;DHT22;11029;47.820;10.534;2023-04-15T04:09:20;1.70;75.60
21734;DHT22;11029;47.820;10.534;2023-04-15T04:11:47;1.60;75.10
21734;DHT22;11029;47.820;10.534;2023-04-15T04:14:14;1.60;75.20
21734;DHT22;11029;47.820;10.534;2023-04-15T04:16:41;1.50;75.00
21734;DHT22;11029;47.820;10.534;2023-04-15T04:19:08;1.50;75.00
21734;DHT22;11029;47.820;10.534;2023-04-15T04:21:34;1.50;75.10
21734;DHT22;11029;47.820;10.534;2023-04-15T04:24:02;1.40;74.60
21734;DHT22;11029;47.820;10.534;2023-04-15T04:26:28;1.20;75.60
21734;DHT22;11029;47.820;10.534;2023-04-15T04:28:55;1.30;75.90
21734;DHT22;11029;47.820;10.534;2023-04-15T04:31:22;1.30;75.30
21734;DHT22;11029;47.820;10.534;2023-04-15T04:33:49;1.20;75.20
21734;DHT22;11029;47.820;10.534;2023-04-15T04:36:15;1.20;75.00
21734;DHT22;11029;47.820;10.534;2023-04-15T04:38:42;1.20;75.00
21734;DHT22;11029;47.820;10.534;2023-04-15T04:41:09;1.10;75.10
21734;DHT22;11029;47.820;10.534;2023-04-15T04:43:36;1.00;74.90
21734;DHT22;11029;47.820;10.534;2023-04-15T04:46:02;1.00;74.70
21734;DHT22;11029;47.820;10.534;2023-04-15T04:48:30;0.90;75.20
21734;DHT22;11029;47.820;10.534;2023-04-15T04:50:57;0.80;75.00
21734;DHT22;11029;47.820;10.534;2023-04-15T04:53:24;0.90;75.00
21734;DHT22;11029;47.820;10.534;2023-04-15T04:55:51;1.00;74.90
21734;DHT22;11029;47.820;10.534;2023-04-15T04:58:18;0.90;74.90
21734;DHT22;11029;47.820;10.534;2023-04-15T05:00:45;1.00;75.10
21734;DHT22;11029;47.820;10.534;2023-04-15T05:03:12;1.10;75.10
21734;DHT22;11029;47.820;10.534;2023-04-15T05:05:39;1.20;74.80
21734;DHT22;11029;47.820;10.534;2023-04-15T05:08:06;1.30;74.90
21734;DHT22;11029;47.820;10.534;2023-04-15T05:10:33;1.30;74.70
21734;DHT22;11029;47.820;10.534;2023-04-15T05:13:00;1.40;74.10
21734;DHT22;11029;47.820;10.534;2023-04-15T05:15:27;1.50;74.40
21734;DHT22;11029;47.820;10.534;2023-04-15T05:17:54;1.60;74.70
21734;DHT22;11029;47.820;10.534;2023-04-15T05:20:20;1.70;74.60
21734;DHT22;11029;47.820;10.534;2023-04-15T05:22:47;1.80;74.40
21734;DHT22;11029;47.820;10.534;2023-04-15T05:25:14;1.80;74.10
21734;DHT22;11029;47.820;10.534;2023-04-15T05:27:41;1.90;74.00
21734;DHT22;11029;47.820;10.534;2023-04-15T05:30:08;2.00;73.80
21734;DHT22;11029;47.820;10.534;2023-04-15T05:32:38;2.10;73.40
21734;DHT22;11029;47.820;10.534;2023-04-15T05:35:06;2.20;73.50
21734;DHT22;11029;47.820;10.534;2023-04-15T05:37:33;2.10;72.70
21734;DHT22;11029;47.820;10.534;2023-04-15T05:40:00;2.20;73.30
21734;DHT22;11029;47.820;10.534;2023-04-15T05:42:27;2.30;73.20
21734;DHT22;11029;47.820;10.534;2023-04-15T05:44:53;2.40;72.70
21734;DHT22;11029;47.820;10.534;2023-04-15T05:47:20;2.50;72.70
21734;DHT22;11029;47.820;10.534;2023-04-15T05:49:47;2.50;72.60
21734;DHT22;11029;47.820;10.534;2023-04-15T05:52:13;2.70;72.10
21734;DHT22;11029;47.820;10.534;2023-04-15T05:54:40;2.80;72.00
21734;DHT22;11029;47.820;10.534;2023-04-15T05:57:07;2.90;71.50
21734;DHT22;11029;47.820;10.534;2023-04-15T05:59:34;3.00;71.60
21734;DHT22;11029;47.820;10.534;2023-04-15T06:02:01;3.20;71.50
21734;DHT22;11029;47.820;10.534;2023-04-15T06:04:28;3.30;70.90
21734;DHT22;11029;47.820;10.534;2023-04-15T06:06:55;3.50;70.60
21734;DHT22;11029;47.820;10.534;2023-04-15T06:09:21;3.60;70.20
21734;DHT22;11029;47.820;10.534;2023-04-15T06:11:48;3.60;69.90
21734;DHT22;11029;47.820;10.534;2023-04-15T06:14:15;3.60;69.60
21734;DHT22;11029;47.820;10.534;2023-04-15T06:16:42;3.60;70.00
21734;DHT22;11029;47.820;10.534;2023-04-15T06:19:09;3.70;70.30
21734;DHT22;11029;47.820;10.534;2023-04-15T06:21:36;3.80;70.40
21734;DHT22;11029;47.820;10.534;2023-04-15T06:24:03;3.90;70.30
21734;DHT22;11029;47.820;10.534;2023-04-15T06:26:30;4.00;70.20
21734;DHT22;11029;47.820;10.534;2023-04-15T06:28:57;4.20;70.00
21734;DHT22;11029;47.820;10.534;2023-04-15T06:31:23;4.50;69.30
21734;DHT22;11029;47.820;10.534;2023-04-15T06:33:50;4.80;68.20
21734;DHT22;11029;47.820;10.534;2023-04-15T06:36:17;5.10;67.00
21734;DHT22;11029;47.820;10.534;2023-04-15T06:38:44;5.40;66.50
21734;DHT22;11029;47.820;10.534;2023-04-15T06:41:11;5.60;64.80
21734;DHT22;11029;47.820;10.534;2023-04-15T06:43:38;5.80;63.60
21734;DHT22;11029;47.820;10.534;2023-04-15T06:46:05;6.10;63.20
21734;DHT22;11029;47.820;10.534;2023-04-15T06:48:32;6.40;62.80
21734;DHT22;11029;47.820;10.534;2023-04-15T06:50:59;6.50;62.50
21734;DHT22;11029;47.820;10.534;2023-04-15T06:53:26;6.60;61.90
21734;DHT22;11029;47.820;10.534;2023-04-15T06:55:53;6.80;61.50
21734;DHT22;11029;47.820;10.534;2023-04-15T06:58:20;6.90;60.60
21734;DHT22;11029;47.820;10.534;2023-04-15T07:00:47;7.10;60.40
21734;DHT22;11029;47.820;10.534;2023-04-15T07:03:14;7.10;60.30
21734;DHT22;11029;47.820;10.534;2023-04-15T07:05:41;7.20;60.00
21734;DHT22;11029;47.820;10.534;2023-04-15T07:08:08;7.20;59.00
21734;DHT22;11029;47.820;10.534;2023-04-15T07:10:35;7.30;58.40
21734;DHT22;11029;47.820;10.534;2023-04-15T07:13:03;7.40;57.30
21734;DHT22;11029;47.820;10.534;2023-04-15T07:15:30;7.20;52.90
21734;DHT22;11029;47.820;10.534;2023-04-15T07:17:56;6.90;54.10
21734;DHT22;11029;47.820;10.534;2023-04-15T07:20:23;6.70;54.50
21734;DHT22;11029;47.820;10.534;2023-04-15T07:22:50;6.70;55.10
21734;DHT22;11029;47.820;10.534;2023-04-15T07:25:17;6.60;54.70
21734;DHT22;11029;47.820;10.534;2023-04-15T07:27:44;6.60;54.90
21734;DHT22;11029;47.820;10.534;2023-04-15T07:30:11;6.40;55.10
21734;DHT22;11029;47.820;10.534;2023-04-15T07:32:38;6.40;55.60
21734;DHT22;11029;47.820;10.534;2023-04-15T07:35:06;6.60;55.30
21734;DHT22;11029;47.820;10.534;2023-04-15T07:37:33;6.70;55.30
21734;DHT22;11029;47.820;10.534;2023-04-15T07:40:00;6.90;55.40
21734;DHT22;11029;47.820;10.534;2023-04-15T07:42:27;7.10;54.50
21734;DHT22;11029;47.820;10.534;2023-04-15T07:44:55;7.00;54.30
21734;DHT22;11029;47.820;10.534;2023-04-15T07:47:22;6.90;52.70
21734;DHT22;11029;47.820;10.534;2023-04-15T07:49:48;6.80;55.10
21734;DHT22;11029;47.820;10.534;2023-04-15T07:52:17;6.70;53.50
21734;DHT22;11029;47.820;10.534;2023-04-15T07:54:44;6.70;52.70
21734;DHT22;11029;47.820;10.534;2023-04-15T07:57:11;6.70;53.60
21734;DHT22;11029;47.820;10.534;2023-04-15T07:59:38;6.80;53.10
21734;DHT22;11029;47.820;10.534;2023-04-15T08:02:05;6.90;52.50
21734;DHT22;11029;47.820;10.534;2023-04-15T08:04:31;6.90;52.80
21734;DHT22;11029;47.820;10.534;2023-04-15T08:06:59;7.00;53.20
21734;DHT22;11029;47.820;10.534;2023-04-15T08:09:26;7.00;51.90
21734;DHT22;11029;47.820;10.534;2023-04-15T08:11:53;7.20;52.20
21734;DHT22;11029;47.820;10.534;2023-04-15T08:14:20;7.30;51.50
21734;DHT22;11029;47.820;10.534;2023-04-15T08:16:47;7.50;51.80
21734;DHT22;11029;47.820;10.534;2023-04-15T08:19:14;7.60;51.30
21734;DHT22;11029;47.820;10.534;2023-04-15T08:21:40;7.60;51.10
21734;DHT22;11029;47.820;10.534;2023-04-15T08:24:07;7.60;51.60
21734;DHT22;11029;47.820;10.534;2023-04-15T08:26:34;7.70;53.30
21734;DHT22;11029;47.820;10.534;2023-04-15T08:29:01;7.70;52.10
21734;DHT22;11029;47.820;10.534;2023-04-15T08:31:29;7.70;51.80
21734;DHT22;11029;47.820;10.534;2023-04-15T08:33:56;7.70;52.20
21734;DHT22;11029;47.820;10.534;2023-04-15T08:36:23;7.70;51.30
21734;DHT22;11029;47.820;10.534;2023-04-15T08:38:50;7.90;50.90
21734;DHT22;11029;47.820;10.534;2023-04-15T08:41:24;7.90;50.70
21734;DHT22;11029;47.820;10.534;2023-04-15T08:44:03;7.80;51.00
21734;DHT22;11029;47.820;10.534;2023-04-15T08:46:31;8.00;51.20
21734;DHT22;11029;47.820;10.534;2023-04-15T08:49:03;8.00;52.00
21734;DHT22;11029;47.820;10.534;2023-04-15T08:51:31;8.10;50.40
21734;DHT22;11029;47.820;10.534;2023-04-15T08:53:59;8.10;52.10
21734;DHT22;11029;47.820;10.534;2023-04-15T08:56:27;8.30;52.30
21734;DHT22;11029;47.820;10.534;2023-04-15T08:58:56;8.40;51.40
21734;DHT22;11029;47.820;10.534;2023-04-15T09:01:23;8.50;51.50
21734;DHT22;11029;47.820;10.534;2023-04-15T09:03:51;8.60;49.80
21734;DHT22;11029;47.820;10.534;2023-04-15T09:06:21;8.80;50.10
21734;DHT22;11029;47.820;10.534;2023-04-15T09:08:49;8.90;47.30
21734;DHT22;11029;47.820;10.534;2023-04-15T09:11:16;8.90;48.90
21734;DHT22;11029;47.820;10.534;2023-04-15T09:13:45;9.10;49.00
21734;DHT22;11029;47.820;10.534;2023-04-15T09:16:12;9.20;46.90
21734;DHT22;11029;47.820;10.534;2023-04-15T09:18:39;9.30;47.70
21734;DHT22;11029;47.820;10.534;2023-04-15T09:21:08;9.30;47.70
21734;DHT22;11029;47.820;10.534;2023-04-15T09:23:38;9.30;48.60
21734;DHT22;11029;47.820;10.534;2023-04-15T09:26:05;9.50;47.30
21734;DHT22;11029;47.820;10.534;2023-04-15T09:28:33;9.40;47.70
21734;DHT22;11029;47.820;10.534;2023-04-15T09:31:06;9.20;48.70
21734;DHT22;11029;47.820;10.534;2023-04-15T09:33:33;9.20;45.90
21734;DHT22;11029;47.820;10.534;2023-04-15T09:36:03;9.30;46.80
21734;DHT22;11029;47.820;10.534;2023-04-15T09:38:31;9.60;47.00
21734;DHT22;11029;47.820;10.534;2023-04-15T09:40:58;9.90;46.50
21734;DHT22;11029;47.820;10.534;2023-04-15T09:43:38;10.00;46.50
21734;DHT22;11029;47.820;10.534;2023-04-15T09:46:05;10.00;48.60
21734;DHT22;11029;47.820;10.534;2023-04-15T09:48:32;9.90;44.30
21734;DHT22;11029;47.820;10.534;2023-04-15T09:51:00;9.60;43.40
21734;DHT22;11029;47.820;10.534;2023-04-15T09:53:27;9.50;48.10
21734;DHT22;11029;47.820;10.534;2023-04-15T09:55:58;9.60;47.00
21734;DHT22;11029;47.820;10.534;2023-04-15T09:58:30;9.50;49.00
21734;DHT22;11029;47.820;10.534;2023-04-15T10:00:58;9.50;46.50
21734;DHT22;11029;47.820;10.534;2023-04-15T10:03:28;9.50;47.90
21734;DHT22;11029;47.820;10.534;2023-04-15T10:05:56;9.50;47.40
21734;DHT22;11029;47.820;10.534;2023-04-15T10:08:29;9.50;47.50
21734;DHT22;11029;47.820;10.534;2023-04-15T10:10:56;9.40;49.30
21734;DHT22;11029;47.820;10.534;2023-04-15T10:13:24;9.30;49.00
21734;DHT22;11029;47.820;10.534;2023-04-15T10:15:57;9.30;46.70
21734;DHT22;11029;47.820;10.534;2023-04-15T10:18:28;9.30;47.00
21734;DHT22;11029;47.820;10.534;2023-04-15T10:20:59;9.30;47.70
21734;DHT22;11029;47.820;10.534;2023-04-15T10:23:26;9.20;48.10
21734;DHT22;11029;47.820;10.534;2023-04-15T10:25:53;9.30;45.90
21734;DHT22;11029;47.820;10.534;2023-04-15T10:28:21;9.30;47.40
21734;DHT22;11029;47.820;10.534;2023-04-15T10:30:51;9.30;46.70
21734;DHT22;11029;47.820;10.534;2023-04-15T10:33:21;9.10;46.40
21734;DHT22;11029;47.820;10.534;2023-04-15T10:35:49;9.20;46.30
21734;DHT22;11029;47.820;10.534;2023-04-15T10:41:25;9.30;43.90
21734;DHT22;11029;47.820;10.534;2023-04-15T10:46:42;9.10;44.80
21734;DHT22;11029;47.820;10.534;2023-04-15T10:49:14;9.40;45.30
21734;DHT22;11029;47.820;10.534;2023-04-15T10:51:52;9.50;45.70
21734;DHT22;11029;47.820;10.534;2023-04-15T10:57:07;9.50;47.30
21734;DHT22;11029;47.820;10.534;2023-04-15T10:59:35;9.60;47.00
21734;DHT22;11029;47.820;10.534;2023-04-15T11:02:04;9.70;44.20
21734;DHT22;11029;47.820;10.534;2023-04-15T11:04:56;9.80;45.10
21734;DHT22;11029;47.820;10.534;2023-04-15T11:07:46;9.80;45.90
21734;DHT22;11029;47.820;10.534;2023-04-15T11:12:50;9.90;44.70
21734;DHT22;11029;47.820;10.534;2023-04-15T11:20:42;9.70;44.70
21734;DHT22;11029;47.820;10.534;2023-04-15T11:23:10;9.70;43.10
21734;DHT22;11029;47.820;10.534;2023-04-15T11:25:41;9.80;42.90
21734;DHT22;11029;47.820;10.534;2023-04-15T11:28:10;9.70;43.90
21734;DHT22;11029;47.820;10.534;2023-04-15T11:30:38;9.80;42.20
21734;DHT22;11029;47.820;10.534;2023-04-15T11:33:07;9.60;41.70
21734;DHT22;11029;47.820;10.534;2023-04-15T11:35:35;9.70;42.60
21734;DHT22;11029;47.820;10.534;2023-04-15T11:38:09;9.70;43.80
21734;DHT22;11029;47.820;10.534;2023-04-15T11:40:38;9.70;45.80
21734;DHT22;11029;47.820;10.534;2023-04-15T11:43:19;9.60;45.10
21734;DHT22;11029;47.820;10.534;2023-04-15T11:45:52;9.60;44.70
21734;DHT22;11029;47.820;10.534;2023-04-15T11:48:31;9.70;45.00
21734;DHT22;11029;47.820;10.534;2023-04-15T11:51:08;9.90;44.30
21734;DHT22;11029;47.820;10.534;2023-04-15T11:53:49;9.90;44.90
21734;DHT22;11029;47.820;10.534;2023-04-15T11:56:24;10.20;45.50
21734;DHT22;11029;47.820;10.534;2023-04-15T11:58:53;10.60;42.50
21734;DHT22;11029;47.820;10.534;2023-04-15T12:01:38;10.80;43.60
21734;DHT22;11029;47.820;10.534;2023-04-15T12:04:14;11.10;42.00
21734;DHT22;11029;47.820;10.534;2023-04-15T12:06:42;10.90;41.50
21734;DHT22;11029;47.820;10.534;2023-04-15T12:09:14;10.70;41.40
21734;DHT22;11029;47.820;10.534;2023-04-15T12:11:46;10.90;40.50
21734;DHT22;11029;47.820;10.534;2023-04-15T12:16:45;11.30;41.50
21734;DHT22;11029;47.820;10.534;2023-04-15T12:19:25;11.10;41.30
21734;DHT22;11029;47.820;10.534;2023-04-15T12:22:14;10.90;40.50
21734;DHT22;11029;47.820;10.534;2023-04-15T12:24:42;10.80;42.70
21734;DHT22;11029;47.820;10.534;2023-04-15T12:27:14;10.50;43.20
21734;DHT22;11029;47.820;10.534;2023-04-15T12:29:41;10.30;44.10
21734;DHT22;11029;47.820;10.534;2023-04-15T12:32:13;10.20;45.40
21734;DHT22;11029;47.820;10.534;2023-04-15T12:34:48;10.00;43.60
21734;DHT22;11029;47.820;10.534;2023-04-15T12:37:16;10.00;48.60
21734;DHT22;11029;47.820;10.534;2023-04-15T12:39:45;10.00;50.30
21734;DHT22;11029;47.820;10.534;2023-04-15T12:42:14;9.80;52.40
21734;DHT22;11029;47.820;10.534;2023-04-15T12:44:41;9.70;52.20
21734;DHT22;11029;47.820;10.534;2023-04-15T12:47:09;9.40;52.80
21734;DHT22;11029;47.820;10.534;2023-04-15T12:49:36;9.30;53.90
21734;DHT22;11029;47.820;10.534;2023-04-15T12:52:03;9.30;54.90
21734;DHT22;11029;47.820;10.534;2023-04-15T12:54:31;9.10;55.00
21734;DHT22;11029;47.820;10.534;2023-04-15T12:56:58;9.00;55.40
21734;DHT22;11029;47.820;10.534;2023-04-15T12:59:25;8.90;55.80
21734;DHT22;11029;47.820;10.534;2023-04-15T13:01:52;8.80;56.00
21734;DHT22;11029;47.820;10.534;2023-04-15T13:04:20;8.80;57.10
21734;DHT22;11029;47.820;10.534;2023-04-15T13:06:47;8.70;57.30
21734;DHT22;11029;47.820;10.534;2023-04-15T13:09:14;8.70;57.20
21734;DHT22;11029;47.820;10.534;2023-04-15T13:11:42;8.60;57.50
21734;DHT22;11029;47.820;10.534;2023-04-15T13:14:09;8.30;58.90
21734;DHT22;11029;47.820;10.534;2023-04-15T13:16:38;8.10;59.70
21734;DHT22;11029;47.820;10.534;2023-04-15T13:19:05;7.80;60.80
21734;DHT22;11029;47.820;10.534;2023-04-15T13:21:32;7.70;61.70
21734;DHT22;11029;47.820;10.534;2023-04-15T13:24:02;7.50;62.60
21734;DHT22;11029;47.820;10.534;2023-04-15T13:26:29;7.30;63.40
21734;DHT22;11029;47.820;10.534;2023-04-15T13:28:57;7.30;63.60
21734;DHT22;11029;47.820;10.534;2023-04-15T13:31:23;7.50;63.20
21734;DHT22;11029;47.820;10.534;2023-04-15T13:33:50;7.60;62.00
21734;DHT22;11029;47.820;10.534;2023-04-15T13:36:17;7.60;62.50
21734;DHT22;11029;47.820;10.534;2023-04-15T13:38:44;7.60;62.80
21734;DHT22;11029;47.820;10.534;2023-04-15T13:41:10;7.50;62.70
21734;DHT22;11029;47.820;10.534;2023-04-15T13:43:37;7.60;61.20
21734;DHT22;11029;47.820;10.534;2023-04-15T13:46:04;7.70;61.20
21734;DHT22;11029;47.820;10.534;2023-04-15T13:48:31;7.70;60.40
21734;DHT22;11029;47.820;10.534;2023-04-15T13:50:57;7.70;60.70
21734;DHT22;11029;47.820;10.534;2023-04-15T13:53:24;7.80;60.50
21734;DHT22;11029;47.820;10.534;2023-04-15T13:56:07;7.80;60.20
21734;DHT22;11029;47.820;10.534;2023-04-15T13:58:36;7.80;59.90
21734;DHT22;11029;47.820;10.534;2023-04-15T14:01:03;7.60;59.40
21734;DHT22;11029;47.820;10.534;2023-04-15T14:03:32;7.50;59.90
21734;DHT22;11029;47.820;10.534;2023-04-15T14:05:59;7.30;61.10
21734;DHT22;11029;47.820;10.534;2023-04-15T14:08:26;7.30;59.70
21734;DHT22;11029;47.820;10.534;2023-04-15T14:10:53;7.10;60.90
21734;DHT22;11029;47.820;10.534;2023-04-15T14:13:19;6.90;61.50
21734;DHT22;11029;47.820;10.534;2023-04-15T14:15:46;6.90;62.70
21734;DHT22;11029;47.820;10.534;2023-04-15T14:18:13;6.90;63.10
21734;DHT22;11029;47.820;10.534;2023-04-15T14:20:40;6.80;64.00
21734;DHT22;11029;47.820;10.534;2023-04-15T14:23:06;6.70;64.90
21734;DHT22;11029;47.820;10.534;2023-04-15T14:25:33;6.70;64.30
21734;DHT22;11029;47.820;10.534;2023-04-15T14:28:01;6.80;64.30
21734;DHT22;11029;47.820;10.534;2023-04-15T14:30:28;6.90;65.60
21734;DHT22;11029;47.820;10.534;2023-04-15T14:32:55;7.10;67.00
21734;DHT22;11029;47.820;10.534;2023-04-15T14:35:22;7.10;67.50
21734;DHT22;11029;47.820;10.534;2023-04-15T14:37:52;7.10;67.30
21734;DHT22;11029;47.820;10.534;2023-04-15T14:40:19;7.10;66.60
21734;DHT22;11029;47.820;10.534;2023-04-15T14:42:46;7.20;66.40
21734;DHT22;11029;47.820;10.534;2023-04-15T14:45:13;7.20;66.20
21734;DHT22;11029;47.820;10.534;2023-04-15T14:47:39;7.30;65.20
21734;DHT22;11029;47.820;10.534;2023-04-15T14:50:07;7.30;65.90
21734;DHT22;11029;47.820;10.534;2023-04-15T14:52:33;7.20;66.20
21734;DHT22;11029;47.820;10.534;2023-04-15T14:55:05;7.10;66.90
21734;DHT22;11029;47.820;10.534;2023-04-15T14:57:32;7.10;67.10
21734;DHT22;11029;47.820;10.534;2023-04-15T14:59:59;7.00;66.70
21734;DHT22;11029;47.820;10.534;2023-04-15T15:02:26;6.90;68.20
21734;DHT22;11029;47.820;10.534;2023-04-15T15:05:05;6.90;68.90
21734;DHT22;11029;47.820;10.534;2023-04-15T15:07:32;7.00;68.30
21734;DHT22;11029;47.820;10.534;2023-04-15T15:09:59;6.90;67.50
21734;DHT22;11029;47.820;10.534;2023-04-15T15:12:26;6.90;69.10
21734;DHT22;11029;47.820;10.534;2023-04-15T15:14:54;6.90;69.20
21734;DHT22;11029;47.820;10.534;2023-04-15T15:17:21;7.00;68.10
21734;DHT22;11029;47.820;10.534;2023-04-15T15:19:48;7.00;66.40
21734;DHT22;11029;47.820;10.534;2023-04-15T15:22:15;7.00;65.80
21734;DHT22;11029;47.820;10.534;2023-04-15T15:24:44;7.00;66.50
21734;DHT22;11029;47.820;10.534;2023-04-15T15:27:10;6.90;66.10
21734;DHT22;11029;47.820;10.534;2023-04-15T15:29:37;6.80;66.20
21734;DHT22;11029;47.820;10.534;2023-04-15T15:32:04;6.80;66.50
21734;DHT22;11029;47.820;10.534;2023-04-15T15:34:31;6.70;65.40
21734;DHT22;11029;47.820;10.534;2023-04-15T15:36:59;6.70;66.10
21734;DHT22;11029;47.820;10.534;2023-04-15T15:39:26;6.70;66.30
21734;DHT22;11029;47.820;10.534;2023-04-15T15:41:53;6.80;66.40
21734;DHT22;11029;47.820;10.534;2023-04-15T15:44:20;6.80;66.70
21734;DHT22;11029;47.820;10.534;2023-04-15T15:46:48;6.80;66.90
21734;DHT22;11029;47.820;10.534;2023-04-15T15:49:15;6.80;67.40
21734;DHT22;11029;47.820;10.534;2023-04-15T15:51:42;6.70;66.50
21734;DHT22;11029;47.820;10.534;2023-04-15T15:54:09;6.70;68.80